QLK1846 YBBN-YBRK
Flight info
| Callsign | QLK1846 |
|---|---|
| Flight time | 0h 55m |
| Altitude | 40000 |
| Route | BIXAD Q67 LOAFA Q64 OLDIB DCT DADBO |
| Aircraft | E190/M-SDE3GILORVW/S |
Departure
| Time | 2026-04-23 12:15 |
|---|---|
| Airport | Brisbane International Airport (YBBN) |
Arrival
| Time | 2026-04-23 13:10 |
|---|---|
| Airport | Rockhampton Airport (YBRK) |
| Time | Latitude | Longitude | Altitude | Speed | Heading |
|---|---|---|---|---|---|
| 2026-04-23 11:45 | -27.38243 | 153.12181 | 20 ft | 0 kts | 192° |
| 2026-04-23 12:04 | -27.38232 | 153.12184 | 20 ft | 4 kts | 192° |
| 2026-04-23 12:04 | -27.38211 | 153.12189 | 20 ft | 3 kts | 192° |
| 2026-04-23 12:04 | -27.38185 | 153.12193 | 21 ft | 4 kts | 174° |
| 2026-04-23 12:04 | -27.38161 | 153.12184 | 20 ft | 4 kts | 130° |
| 2026-04-23 12:05 | -27.38163 | 153.12192 | 23 ft | 4 kts | 111° |
| 2026-04-23 12:05 | -27.38167 | 153.12200 | 22 ft | 0 kts | 117° |
| 2026-04-23 12:08 | -27.38170 | 153.12207 | 21 ft | 3 kts | 117° |
| 2026-04-23 12:08 | -27.38183 | 153.12234 | 20 ft | 5 kts | 117° |
| 2026-04-23 12:08 | -27.38200 | 153.12273 | 20 ft | 6 kts | 115° |
| 2026-04-23 12:08 | -27.38215 | 153.12328 | 20 ft | 8 kts | 110° |
| 2026-04-23 12:09 | -27.38241 | 153.12387 | 20 ft | 9 kts | 117° |
| 2026-04-23 12:09 | -27.38262 | 153.12434 | 20 ft | 0 kts | 116° |
| 2026-04-23 12:09 | -27.38275 | 153.12461 | 20 ft | 8 kts | 117° |
| 2026-04-23 12:09 | -27.38304 | 153.12524 | 20 ft | 10 kts | 117° |
| 2026-04-23 12:10 | -27.38296 | 153.12591 | 20 ft | 7 kts | 40° |
| 2026-04-23 12:10 | -27.38244 | 153.12622 | 20 ft | 10 kts | 26° |
| 2026-04-23 12:10 | -27.38179 | 153.12658 | 21 ft | 11 kts | 27° |
| 2026-04-23 12:10 | -27.38103 | 153.12701 | 20 ft | 13 kts | 27° |
| 2026-04-23 12:11 | -27.38017 | 153.12751 | 20 ft | 15 kts | 27° |
| 2026-04-23 12:11 | -27.37921 | 153.12807 | 20 ft | 16 kts | 27° |
| 2026-04-23 12:11 | -27.37815 | 153.12867 | 20 ft | 18 kts | 27° |
| 2026-04-23 12:11 | -27.37702 | 153.12934 | 20 ft | 19 kts | 25° |
| 2026-04-23 12:12 | -27.37635 | 153.12970 | 21 ft | 10 kts | 27° |
| 2026-04-23 12:12 | -27.37570 | 153.13007 | 20 ft | 11 kts | 27° |
| 2026-04-23 12:12 | -27.37496 | 153.13049 | 22 ft | 13 kts | 26° |
| 2026-04-23 12:12 | -27.37412 | 153.13098 | 20 ft | 14 kts | 26° |
| 2026-04-23 12:13 | -27.37318 | 153.13151 | 21 ft | 16 kts | 27° |
| 2026-04-23 12:13 | -27.37278 | 153.13244 | 20 ft | 15 kts | 114° |
| 2026-04-23 12:13 | -27.37322 | 153.13344 | 20 ft | 11 kts | 116° |
| 2026-04-23 12:13 | -27.37372 | 153.13410 | 21 ft | 12 kts | 147° |
| 2026-04-23 12:14 | -27.37449 | 153.13433 | 21 ft | 12 kts | 185° |
| 2026-04-23 12:14 | -27.37528 | 153.13395 | 21 ft | 14 kts | 207° |
| 2026-04-23 12:14 | -27.37744 | 153.13273 | 20 ft | 73 kts | 207° |
| 2026-04-23 12:14 | -27.38448 | 153.12871 | 22 ft | 152 kts | 207° |
| 2026-04-23 12:15 | -27.39531 | 153.12254 | 567 ft | 184 kts | 202° |
| 2026-04-23 12:15 | -27.40713 | 153.11642 | 1762 ft | 187 kts | 200° |
| 2026-04-23 12:15 | -27.41933 | 153.11078 | 3022 ft | 197 kts | 198° |
| 2026-04-23 12:15 | -27.43255 | 153.10444 | 3910 ft | 224 kts | 202° |
| 2026-04-23 12:16 | -27.44649 | 153.09535 | 5071 ft | 229 kts | 209° |
| 2026-04-23 12:16 | -27.46035 | 153.08525 | 6011 ft | 263 kts | 208° |
| 2026-04-23 12:16 | -27.47572 | 153.07333 | 7379 ft | 263 kts | 220° |
| 2026-04-23 12:16 | -27.48630 | 153.05632 | 8868 ft | 275 kts | 245° |
| 2026-04-23 12:17 | -27.48910 | 153.03468 | 10205 ft | 284 kts | 268° |
| 2026-04-23 12:17 | -27.48755 | 153.01207 | 11299 ft | 295 kts | 274° |
| 2026-04-23 12:17 | -27.48510 | 152.98929 | 12425 ft | 301 kts | 275° |
| 2026-04-23 12:17 | -27.48245 | 152.96556 | 13498 ft | 308 kts | 275° |
| 2026-04-23 12:18 | -27.47973 | 152.94119 | 14511 ft | 315 kts | 279° |
| 2026-04-23 12:18 | -27.47114 | 152.91838 | 15491 ft | 322 kts | 308° |
| 2026-04-23 12:18 | -27.45369 | 152.90274 | 16451 ft | 324 kts | 338° |
| 2026-04-23 12:18 | -27.43167 | 152.89791 | 17328 ft | 329 kts | 4° |
| 2026-04-23 12:19 | -27.40889 | 152.90392 | 17385 ft | 355 kts | 30° |
| 2026-04-23 12:19 | -27.38931 | 152.92189 | 17483 ft | 377 kts | 55° |
| 2026-04-23 12:19 | -27.37506 | 152.94686 | 18399 ft | 379 kts | 63° |
| 2026-04-23 12:19 | -27.36196 | 152.97283 | 19207 ft | 385 kts | 63° |
| 2026-04-23 12:20 | -27.34809 | 152.99895 | 19920 ft | 392 kts | 61° |
| 2026-04-23 12:20 | -27.33349 | 153.02534 | 20620 ft | 399 kts | 60° |
| 2026-04-23 12:20 | -27.31837 | 153.05202 | 21245 ft | 408 kts | 59° |
| 2026-04-23 12:20 | -27.30293 | 153.07910 | 21933 ft | 415 kts | 58° |
| 2026-04-23 12:21 | -27.28536 | 153.10513 | 22595 ft | 421 kts | 48° |
| 2026-04-23 12:21 | -27.26384 | 153.12789 | 23232 ft | 427 kts | 39° |
| 2026-04-23 12:21 | -27.24083 | 153.14865 | 23841 ft | 434 kts | 38° |
| 2026-04-23 12:21 | -27.21701 | 153.16984 | 24420 ft | 436 kts | 33° |
| 2026-04-23 12:22 | -27.19005 | 153.18526 | 25002 ft | 436 kts | 18° |
| 2026-04-23 12:22 | -27.16091 | 153.19468 | 25549 ft | 438 kts | 12° |
| 2026-04-23 12:22 | -27.13128 | 153.20333 | 26109 ft | 441 kts | 13° |
| 2026-04-23 12:22 | -27.10157 | 153.21285 | 26641 ft | 445 kts | 14° |
| 2026-04-23 12:23 | -27.07198 | 153.22312 | 27247 ft | 446 kts | 15° |
| 2026-04-23 12:23 | -27.04224 | 153.23359 | 27737 ft | 449 kts | 14° |
| 2026-04-23 12:23 | -27.01218 | 153.24140 | 28194 ft | 448 kts | 4° |
| 2026-04-23 12:23 | -26.98113 | 153.24267 | 28699 ft | 447 kts | 356° |
| 2026-04-23 12:24 | -26.94988 | 153.24203 | 29149 ft | 450 kts | 356° |
| 2026-04-23 12:24 | -26.91854 | 153.24190 | 29806 ft | 448 kts | 357° |
| 2026-04-23 12:24 | -26.88739 | 153.24222 | 30475 ft | 445 kts | 357° |
| 2026-04-23 12:24 | -26.85640 | 153.24275 | 30997 ft | 444 kts | 357° |
| 2026-04-23 12:25 | -26.82563 | 153.24336 | 31530 ft | 441 kts | 357° |
| 2026-04-23 12:25 | -26.79504 | 153.24400 | 32151 ft | 437 kts | 356° |
| 2026-04-23 12:25 | -26.76499 | 153.24465 | 32611 ft | 436 kts | 356° |
| 2026-04-23 12:25 | -26.73470 | 153.24529 | 33118 ft | 434 kts | 356° |
| 2026-04-23 12:26 | -26.70446 | 153.24596 | 33603 ft | 432 kts | 355° |
| 2026-04-23 12:26 | -26.67496 | 153.24274 | 34027 ft | 422 kts | 342° |
| 2026-04-23 12:26 | -26.64710 | 153.23357 | 34471 ft | 414 kts | 335° |
| 2026-04-23 12:26 | -26.61991 | 153.22293 | 34799 ft | 414 kts | 335° |
| 2026-04-23 12:27 | -26.59282 | 153.21277 | 35158 ft | 414 kts | 336° |
| 2026-04-23 12:27 | -26.56545 | 153.20297 | 35515 ft | 413 kts | 337° |
| 2026-04-23 12:27 | -26.53810 | 153.19342 | 35903 ft | 410 kts | 337° |
| 2026-04-23 12:27 | -26.51095 | 153.18403 | 36319 ft | 407 kts | 337° |
| 2026-04-23 12:28 | -26.48379 | 153.17463 | 36601 ft | 407 kts | 337° |
| 2026-04-23 12:28 | -26.45671 | 153.16529 | 36941 ft | 406 kts | 337° |
| 2026-04-23 12:28 | -26.42974 | 153.15599 | 37262 ft | 405 kts | 337° |
| 2026-04-23 12:28 | -26.40277 | 153.14670 | 37575 ft | 404 kts | 337° |
| 2026-04-23 12:29 | -26.37623 | 153.13756 | 37867 ft | 404 kts | 336° |
| 2026-04-23 12:29 | -26.34942 | 153.12833 | 38177 ft | 403 kts | 337° |
| 2026-04-23 12:29 | -26.32247 | 153.11905 | 38320 ft | 406 kts | 337° |
| 2026-04-23 12:29 | -26.29549 | 153.10978 | 38640 ft | 404 kts | 337° |
| 2026-04-23 12:30 | -26.26981 | 153.09790 | 38821 ft | 395 kts | 323° |
| 2026-04-23 12:30 | -26.24737 | 153.08077 | 39154 ft | 385 kts | 318° |
| 2026-04-23 12:30 | -26.22613 | 153.06268 | 39454 ft | 383 kts | 317° |
| 2026-04-23 12:30 | -26.20492 | 153.04460 | 39569 ft | 385 kts | 318° |
| 2026-04-23 12:31 | -26.18346 | 153.02657 | 39753 ft | 385 kts | 318° |
| 2026-04-23 12:31 | -26.16225 | 153.00894 | 39932 ft | 385 kts | 318° |
| 2026-04-23 12:31 | -26.14074 | 152.99116 | 40097 ft | 386 kts | 318° |
| 2026-04-23 12:31 | -26.11903 | 152.97323 | 40085 ft | 391 kts | 319° |
| 2026-04-23 12:32 | -26.07455 | 152.93706 | 40113 ft | 400 kts | 319° |
| 2026-04-23 12:32 | -26.02882 | 152.90048 | 40152 ft | 408 kts | 319° |
| 2026-04-23 12:33 | -25.98249 | 152.86335 | 40184 ft | 416 kts | 319° |
| 2026-04-23 12:33 | -25.93497 | 152.82526 | 40195 ft | 425 kts | 320° |
| 2026-04-23 12:34 | -25.88656 | 152.78648 | 40200 ft | 432 kts | 319° |
| 2026-04-23 12:34 | -25.83759 | 152.74731 | 40201 ft | 440 kts | 320° |
| 2026-04-23 12:35 | -25.78767 | 152.70745 | 40201 ft | 442 kts | 320° |
| 2026-04-23 12:35 | -25.73780 | 152.66764 | 40192 ft | 442 kts | 320° |
| 2026-04-23 12:36 | -25.68776 | 152.62775 | 40193 ft | 442 kts | 320° |
| 2026-04-23 12:36 | -25.63775 | 152.58792 | 40189 ft | 442 kts | 320° |
| 2026-04-23 12:37 | -25.58779 | 152.54818 | 40187 ft | 440 kts | 319° |
| 2026-04-23 12:37 | -25.53838 | 152.50889 | 40187 ft | 441 kts | 319° |
| 2026-04-23 12:38 | -25.48839 | 152.46919 | 40191 ft | 441 kts | 319° |
| 2026-04-23 12:38 | -25.43851 | 152.42963 | 40183 ft | 441 kts | 319° |
| 2026-04-23 12:39 | -25.38863 | 152.39009 | 40183 ft | 441 kts | 320° |
| 2026-04-23 12:39 | -25.33887 | 152.35070 | 40182 ft | 441 kts | 320° |
| 2026-04-23 12:40 | -25.28885 | 152.31115 | 40183 ft | 441 kts | 320° |
| 2026-04-23 12:40 | -25.23893 | 152.27172 | 40175 ft | 439 kts | 319° |
| 2026-04-23 12:41 | -25.18920 | 152.23246 | 40173 ft | 439 kts | 319° |
| 2026-04-23 12:41 | -25.13980 | 152.19351 | 40173 ft | 439 kts | 319° |
| 2026-04-23 12:42 | -25.08999 | 152.15428 | 40170 ft | 439 kts | 319° |
| 2026-04-23 12:42 | -25.04019 | 152.11502 | 40163 ft | 438 kts | 317° |
| 2026-04-23 12:43 | -25.00377 | 152.07699 | 40174 ft | 433 kts | 309° |
| 2026-04-23 12:43 | -24.96243 | 152.02860 | 40165 ft | 433 kts | 309° |
| 2026-04-23 12:44 | -24.92072 | 151.98055 | 40167 ft | 433 kts | 310° |
| 2026-04-23 12:44 | -24.87911 | 151.93300 | 40169 ft | 433 kts | 310° |
| 2026-04-23 12:45 | -24.83715 | 151.88514 | 40163 ft | 434 kts | 310° |
| 2026-04-23 12:45 | -24.79515 | 151.83730 | 40164 ft | 434 kts | 310° |
| 2026-04-23 12:46 | -24.75319 | 151.78954 | 40167 ft | 434 kts | 310° |
| 2026-04-23 12:46 | -24.71115 | 151.74172 | 40165 ft | 434 kts | 310° |
| 2026-04-23 12:47 | -24.66940 | 151.69433 | 40162 ft | 434 kts | 310° |
| 2026-04-23 12:47 | -24.62734 | 151.64661 | 40160 ft | 434 kts | 310° |
| 2026-04-23 12:48 | -24.58512 | 151.59876 | 39857 ft | 439 kts | 310° |
| 2026-04-23 12:48 | -24.56387 | 151.57471 | 39633 ft | 434 kts | 310° |
| 2026-04-23 12:48 | -24.54305 | 151.55116 | 39016 ft | 436 kts | 310° |
| 2026-04-23 12:49 | -24.52188 | 151.52721 | 38445 ft | 436 kts | 310° |
| 2026-04-23 12:49 | -24.50075 | 151.50330 | 37834 ft | 436 kts | 310° |
| 2026-04-23 12:49 | -24.47963 | 151.47942 | 37269 ft | 437 kts | 310° |
| 2026-04-23 12:49 | -24.45844 | 151.45548 | 36695 ft | 437 kts | 310° |
| 2026-04-23 12:50 | -24.43719 | 151.43151 | 36073 ft | 439 kts | 310° |
| 2026-04-23 12:50 | -24.41593 | 151.40748 | 35539 ft | 440 kts | 310° |
| 2026-04-23 12:50 | -24.39455 | 151.38323 | 34924 ft | 441 kts | 310° |
| 2026-04-23 12:50 | -24.37332 | 151.35934 | 34340 ft | 442 kts | 310° |
| 2026-04-23 12:51 | -24.35176 | 151.33510 | 33743 ft | 443 kts | 310° |
| 2026-04-23 12:51 | -24.33011 | 151.31074 | 33151 ft | 448 kts | 310° |
| 2026-04-23 12:51 | -24.30824 | 151.28615 | 32585 ft | 452 kts | 310° |
| 2026-04-23 12:51 | -24.28623 | 151.26137 | 31939 ft | 455 kts | 310° |
| 2026-04-23 12:52 | -24.26397 | 151.23635 | 31336 ft | 460 kts | 310° |
| 2026-04-23 12:52 | -24.24153 | 151.21112 | 30739 ft | 463 kts | 311° |
| 2026-04-23 12:52 | -24.21892 | 151.18574 | 30313 ft | 466 kts | 311° |
| 2026-04-23 12:52 | -24.19639 | 151.16048 | 30352 ft | 461 kts | 310° |
| 2026-04-23 12:53 | -24.15174 | 151.11046 | 30300 ft | 460 kts | 310° |
| 2026-04-23 12:53 | -24.10686 | 151.06014 | 30288 ft | 460 kts | 310° |
| 2026-04-23 12:54 | -24.06170 | 151.00994 | 30247 ft | 462 kts | 313° |
| 2026-04-23 12:54 | -24.01032 | 150.96656 | 30215 ft | 467 kts | 320° |
| 2026-04-23 12:55 | -23.95748 | 150.92527 | 30191 ft | 467 kts | 319° |
| 2026-04-23 12:55 | -23.93162 | 150.90479 | 29580 ft | 465 kts | 319° |
| 2026-04-23 12:55 | -23.90570 | 150.88419 | 28722 ft | 460 kts | 320° |
| 2026-04-23 12:56 | -23.87989 | 150.86362 | 27866 ft | 457 kts | 320° |
| 2026-04-23 12:56 | -23.85299 | 150.84587 | 27078 ft | 461 kts | 333° |
| 2026-04-23 12:56 | -23.82279 | 150.83447 | 26334 ft | 462 kts | 338° |
| 2026-04-23 12:56 | -23.79238 | 150.82413 | 25689 ft | 459 kts | 337° |
| 2026-04-23 12:57 | -23.76235 | 150.81307 | 25101 ft | 455 kts | 336° |
| 2026-04-23 12:57 | -23.73294 | 150.80192 | 24589 ft | 451 kts | 336° |
| 2026-04-23 12:57 | -23.70333 | 150.79051 | 24083 ft | 448 kts | 336° |
| 2026-04-23 12:57 | -23.67374 | 150.77902 | 23574 ft | 446 kts | 337° |
| 2026-04-23 12:58 | -23.64433 | 150.76758 | 23057 ft | 444 kts | 337° |
| 2026-04-23 12:58 | -23.61520 | 150.75624 | 22567 ft | 439 kts | 337° |
| 2026-04-23 12:58 | -23.58685 | 150.74523 | 21374 ft | 421 kts | 337° |
| 2026-04-23 12:58 | -23.55989 | 150.73476 | 20129 ft | 401 kts | 337° |
| 2026-04-23 12:59 | -23.53443 | 150.72484 | 18886 ft | 387 kts | 338° |
| 2026-04-23 12:59 | -23.50935 | 150.71507 | 17516 ft | 378 kts | 338° |
| 2026-04-23 12:59 | -23.48488 | 150.70558 | 16179 ft | 371 kts | 338° |
| 2026-04-23 12:59 | -23.46067 | 150.69610 | 14886 ft | 367 kts | 338° |
| 2026-04-23 13:00 | -23.43692 | 150.68668 | 13627 ft | 358 kts | 339° |
| 2026-04-23 13:00 | -23.41383 | 150.67763 | 12321 ft | 349 kts | 339° |
| 2026-04-23 13:00 | -23.39130 | 150.66888 | 11457 ft | 333 kts | 340° |
| 2026-04-23 13:00 | -23.36911 | 150.66043 | 11108 ft | 345 kts | 341° |
| 2026-04-23 13:01 | -23.34633 | 150.65166 | 10644 ft | 343 kts | 341° |
| 2026-04-23 13:01 | -23.32399 | 150.64314 | 10169 ft | 336 kts | 341° |
| 2026-04-23 13:01 | -23.30219 | 150.63459 | 9707 ft | 329 kts | 341° |
| 2026-04-23 13:01 | -23.28113 | 150.62632 | 9302 ft | 321 kts | 342° |
| 2026-04-23 13:02 | -23.26030 | 150.61823 | 8877 ft | 315 kts | 341° |
| 2026-04-23 13:02 | -23.23977 | 150.61026 | 8449 ft | 309 kts | 342° |
| 2026-04-23 13:02 | -23.21959 | 150.60244 | 8055 ft | 305 kts | 342° |
| 2026-04-23 13:02 | -23.19993 | 150.59482 | 7662 ft | 302 kts | 342° |
| 2026-04-23 13:03 | -23.18123 | 150.58440 | 6981 ft | 310 kts | 320° |
| 2026-04-23 13:03 | -23.16900 | 150.56562 | 6635 ft | 301 kts | 290° |
| 2026-04-23 13:03 | -23.16374 | 150.54454 | 6364 ft | 275 kts | 278° |
| 2026-04-23 13:03 | -23.16083 | 150.52484 | 5981 ft | 258 kts | 277° |
| 2026-04-23 13:04 | -23.15793 | 150.50572 | 5610 ft | 255 kts | 277° |
| 2026-04-23 13:04 | -23.15452 | 150.48679 | 5251 ft | 253 kts | 277° |
| 2026-04-23 13:04 | -23.15436 | 150.46793 | 4886 ft | 247 kts | 255° |
| 2026-04-23 13:04 | -23.16107 | 150.45131 | 4556 ft | 239 kts | 228° |
| 2026-04-23 13:05 | -23.17197 | 150.43765 | 4292 ft | 238 kts | 222° |
| 2026-04-23 13:05 | -23.18309 | 150.42492 | 3984 ft | 229 kts | 222° |
| 2026-04-23 13:05 | -23.19368 | 150.41266 | 3665 ft | 215 kts | 222° |
| 2026-04-23 13:05 | -23.20415 | 150.40215 | 3314 ft | 195 kts | 203° |
| 2026-04-23 13:06 | -23.22754 | 150.40521 | 2898 ft | 171 kts | 150° |
| 2026-04-23 13:06 | -23.23802 | 150.41109 | 2887 ft | 171 kts | 150° |
| 2026-04-23 13:06 | -23.24903 | 150.41693 | 2898 ft | 178 kts | 152° |
| 2026-04-23 13:07 | -23.26027 | 150.42249 | 2706 ft | 174 kts | 154° |
| 2026-04-23 13:07 | -23.27157 | 150.42748 | 2493 ft | 178 kts | 155° |
| 2026-04-23 13:07 | -23.28267 | 150.43215 | 2294 ft | 163 kts | 155° |
| 2026-04-23 13:07 | -23.29311 | 150.43655 | 1920 ft | 161 kts | 154° |
| 2026-04-23 13:08 | -23.30337 | 150.44102 | 1497 ft | 160 kts | 154° |
| 2026-04-23 13:08 | -23.31343 | 150.44543 | 1224 ft | 149 kts | 154° |
| 2026-04-23 13:08 | -23.32270 | 150.44961 | 961 ft | 140 kts | 152° |
| 2026-04-23 13:08 | -23.33156 | 150.45374 | 746 ft | 132 kts | 148° |
| 2026-04-23 13:09 | -23.33958 | 150.45741 | 655 ft | 126 kts | 151° |
| 2026-04-23 13:09 | -23.34781 | 150.46112 | 621 ft | 133 kts | 155° |
| 2026-04-23 13:09 | -23.35663 | 150.46489 | 372 ft | 134 kts | 153° |
| 2026-04-23 13:09 | -23.36496 | 150.46871 | 165 ft | 130 kts | 154° |
| 2026-04-23 13:10 | -23.37335 | 150.47243 | 44 ft | 122 kts | 157° |
| 2026-04-23 13:10 | -23.38001 | 150.47539 | 37 ft | 80 kts | 158° |
| 2026-04-23 13:10 | -23.38408 | 150.47719 | 39 ft | 55 kts | 157° |
| 2026-04-23 13:10 | -23.38646 | 150.47826 | 36 ft | 21 kts | 158° |
| 2026-04-23 13:11 | -23.38712 | 150.47888 | 36 ft | 13 kts | 98° |
| 2026-04-23 13:11 | -23.38678 | 150.47981 | 35 ft | 14 kts | 53° |
| 2026-04-23 13:11 | -23.38598 | 150.47994 | 37 ft | 12 kts | 338° |
| 2026-04-23 13:11 | -23.38584 | 150.47988 | 37 ft | 3 kts | 338° |
| 2026-04-23 13:12 | -23.38557 | 150.47975 | 37 ft | 7 kts | 338° |
| 2026-04-23 13:12 | -23.38499 | 150.47950 | 37 ft | 11 kts | 338° |
| 2026-04-23 13:12 | -23.38414 | 150.47913 | 37 ft | 15 kts | 338° |
| 2026-04-23 13:12 | -23.38315 | 150.47868 | 37 ft | 16 kts | 338° |
| 2026-04-23 13:13 | -23.38262 | 150.47845 | 37 ft | 8 kts | 338° |
| 2026-04-23 13:13 | -23.38192 | 150.47813 | 37 ft | 13 kts | 338° |
| 2026-04-23 13:13 | -23.38097 | 150.47772 | 37 ft | 16 kts | 338° |
| 2026-04-23 13:13 | -23.38031 | 150.47742 | 37 ft | 8 kts | 338° |
| 2026-04-23 13:14 | -23.37979 | 150.47745 | 36 ft | 10 kts | 44° |
| 2026-04-23 13:14 | -23.37919 | 150.47742 | 37 ft | 9 kts | 337° |
| 2026-04-23 13:14 | -23.37908 | 150.47737 | 37 ft | 3 kts | 337° |
| 2026-04-23 13:14 | -23.37887 | 150.47727 | 38 ft | 4 kts | 337° |
| 2026-04-23 13:15 | -23.37860 | 150.47719 | 38 ft | 1 kts | 4° |
| 2026-04-23 13:15 | -23.37857 | 150.47721 | 38 ft | 1 kts | 16° |
| 2026-04-23 13:15 | -23.37840 | 150.47723 | 38 ft | 4 kts | 11° |
| 2026-04-23 13:15 | -23.37834 | 150.47741 | 38 ft | 2 kts | 87° |
| 2026-04-23 13:16 | -23.37835 | 150.47753 | 39 ft | 1 kts | 100° |
| 2026-04-23 13:16 | -23.37838 | 150.47764 | 37 ft | 0 kts | 105° |